sensor_id;sensor_type;location;lat;lon;timestamp;P1;durP1;ratioP1;P2;durP2;ratioP2
16667;SDS011;8447;52.630;4.734;2023-04-15T00:00:13;4.33;;;2.20;;
16667;SDS011;8447;52.630;4.734;2023-04-15T00:02:41;5.13;;;2.63;;
16667;SDS011;8447;52.630;4.734;2023-04-15T00:05:08;5.50;;;2.37;;
16667;SDS011;8447;52.630;4.734;2023-04-15T00:07:34;4.27;;;2.30;;
16667;SDS011;8447;52.630;4.734;2023-04-15T00:10:01;7.63;;;2.60;;
16667;SDS011;8447;52.630;4.734;2023-04-15T00:12:28;5.67;;;2.70;;
16667;SDS011;8447;52.630;4.734;2023-04-15T00:14:54;5.73;;;2.57;;
16667;SDS011;8447;52.630;4.734;2023-04-15T00:17:22;4.50;;;2.07;;
16667;SDS011;8447;52.630;4.734;2023-04-15T00:19:50;7.40;;;2.93;;
16667;SDS011;8447;52.630;4.734;2023-04-15T00:22:17;4.70;;;2.50;;
16667;SDS011;8447;52.630;4.734;2023-04-15T00:24:43;4.77;;;2.20;;
16667;SDS011;8447;52.630;4.734;2023-04-15T00:27:10;7.70;;;2.70;;
16667;SDS011;8447;52.630;4.734;2023-04-15T00:29:36;4.07;;;2.27;;
16667;SDS011;8447;52.630;4.734;2023-04-15T00:32:02;4.73;;;1.90;;
16667;SDS011;8447;52.630;4.734;2023-04-15T00:34:29;4.57;;;2.10;;
16667;SDS011;8447;52.630;4.734;2023-04-15T00:36:56;3.50;;;2.40;;
16667;SDS011;8447;52.630;4.734;2023-04-15T00:39:23;5.37;;;2.60;;
16667;SDS011;8447;52.630;4.734;2023-04-15T00:41:50;4.53;;;2.37;;
16667;SDS011;8447;52.630;4.734;2023-04-15T00:44:16;4.97;;;2.10;;
16667;SDS011;8447;52.630;4.734;2023-04-15T00:46:44;6.47;;;2.40;;
16667;SDS011;8447;52.630;4.734;2023-04-15T00:49:10;5.23;;;2.60;;
16667;SDS011;8447;52.630;4.734;2023-04-15T00:51:37;4.97;;;2.37;;
16667;SDS011;8447;52.630;4.734;2023-04-15T00:54:04;5.43;;;3.00;;
16667;SDS011;8447;52.630;4.734;2023-04-15T00:56:33;3.63;;;2.43;;
16667;SDS011;8447;52.630;4.734;2023-04-15T00:59:01;4.43;;;2.73;;
16667;SDS011;8447;52.630;4.734;2023-04-15T01:01:27;4.03;;;2.57;;
16667;SDS011;8447;52.630;4.734;2023-04-15T01:03:55;6.00;;;2.60;;
16667;SDS011;8447;52.630;4.734;2023-04-15T01:06:21;4.80;;;2.20;;
16667;SDS011;8447;52.630;4.734;2023-04-15T01:08:48;5.60;;;2.60;;
16667;SDS011;8447;52.630;4.734;2023-04-15T01:11:16;5.93;;;2.70;;
16667;SDS011;8447;52.630;4.734;2023-04-15T01:13:42;6.60;;;2.57;;
16667;SDS011;8447;52.630;4.734;2023-04-15T01:16:09;6.13;;;2.40;;
16667;SDS011;8447;52.630;4.734;2023-04-15T01:18:36;5.83;;;2.60;;
16667;SDS011;8447;52.630;4.734;2023-04-15T01:21:03;4.73;;;2.33;;
16667;SDS011;8447;52.630;4.734;2023-04-15T01:23:29;3.50;;;2.20;;
16667;SDS011;8447;52.630;4.734;2023-04-15T01:25:58;5.33;;;2.77;;
16667;SDS011;8447;52.630;4.734;2023-04-15T01:28:24;4.57;;;2.50;;
16667;SDS011;8447;52.630;4.734;2023-04-15T01:31:03;4.00;;;2.30;;
16667;SDS011;8447;52.630;4.734;2023-04-15T01:33:31;3.53;;;2.20;;
16667;SDS011;8447;52.630;4.734;2023-04-15T01:35:58;3.80;;;2.63;;
16667;SDS011;8447;52.630;4.734;2023-04-15T01:38:25;6.67;;;2.70;;
16667;SDS011;8447;52.630;4.734;2023-04-15T01:40:51;6.23;;;2.40;;
16667;SDS011;8447;52.630;4.734;2023-04-15T01:43:19;3.47;;;2.10;;
16667;SDS011;8447;52.630;4.734;2023-04-15T01:45:46;5.07;;;2.83;;
16667;SDS011;8447;52.630;4.734;2023-04-15T01:48:12;4.23;;;2.27;;
16667;SDS011;8447;52.630;4.734;2023-04-15T01:50:38;4.87;;;2.33;;
16667;SDS011;8447;52.630;4.734;2023-04-15T01:53:05;4.33;;;2.60;;
16667;SDS011;8447;52.630;4.734;2023-04-15T01:55:31;4.27;;;2.40;;
16667;SDS011;8447;52.630;4.734;2023-04-15T01:57:58;6.10;;;2.40;;
16667;SDS011;8447;52.630;4.734;2023-04-15T02:00:26;4.03;;;2.10;;
16667;SDS011;8447;52.630;4.734;2023-04-15T02:02:53;4.13;;;2.80;;
16667;SDS011;8447;52.630;4.734;2023-04-15T02:05:19;3.97;;;2.37;;
16667;SDS011;8447;52.630;4.734;2023-04-15T02:07:45;3.97;;;2.50;;
16667;SDS011;8447;52.630;4.734;2023-04-15T02:10:12;4.23;;;2.40;;
16667;SDS011;8447;52.630;4.734;2023-04-15T02:12:40;5.43;;;3.00;;
16667;SDS011;8447;52.630;4.734;2023-04-15T02:15:07;4.40;;;2.33;;
16667;SDS011;8447;52.630;4.734;2023-04-15T02:17:35;6.43;;;2.67;;
16667;SDS011;8447;52.630;4.734;2023-04-15T02:20:02;4.63;;;2.30;;
16667;SDS011;8447;52.630;4.734;2023-04-15T02:22:30;6.23;;;2.70;;
16667;SDS011;8447;52.630;4.734;2023-04-15T02:24:56;4.50;;;2.50;;
16667;SDS011;8447;52.630;4.734;2023-04-15T02:27:22;6.40;;;2.50;;
16667;SDS011;8447;52.630;4.734;2023-04-15T02:29:49;3.17;;;2.50;;
16667;SDS011;8447;52.630;4.734;2023-04-15T02:32:15;5.43;;;2.43;;
16667;SDS011;8447;52.630;4.734;2023-04-15T02:34:44;6.27;;;2.70;;
16667;SDS011;8447;52.630;4.734;2023-04-15T02:37:11;4.83;;;2.97;;
16667;SDS011;8447;52.630;4.734;2023-04-15T02:39:37;3.73;;;2.53;;
16667;SDS011;8447;52.630;4.734;2023-04-15T02:42:04;4.40;;;2.30;;
16667;SDS011;8447;52.630;4.734;2023-04-15T02:44:31;5.23;;;2.80;;
16667;SDS011;8447;52.630;4.734;2023-04-15T02:46:59;5.80;;;2.93;;
16667;SDS011;8447;52.630;4.734;2023-04-15T02:49:25;5.13;;;2.97;;
16667;SDS011;8447;52.630;4.734;2023-04-15T02:51:55;6.00;;;3.30;;
16667;SDS011;8447;52.630;4.734;2023-04-15T02:54:22;4.53;;;2.57;;
16667;SDS011;8447;52.630;4.734;2023-04-15T02:56:49;4.57;;;2.43;;
16667;SDS011;8447;52.630;4.734;2023-04-15T02:59:16;3.43;;;2.50;;
16667;SDS011;8447;52.630;4.734;2023-04-15T03:01:42;4.90;;;2.80;;
16667;SDS011;8447;52.630;4.734;2023-04-15T03:04:09;4.20;;;2.90;;
16667;SDS011;8447;52.630;4.734;2023-04-15T03:06:35;6.13;;;2.90;;
16667;SDS011;8447;52.630;4.734;2023-04-15T03:09:03;4.60;;;2.93;;
16667;SDS011;8447;52.630;4.734;2023-04-15T03:11:29;5.87;;;3.00;;
16667;SDS011;8447;52.630;4.734;2023-04-15T03:13:56;8.23;;;2.83;;
16667;SDS011;8447;52.630;4.734;2023-04-15T03:16:22;6.20;;;2.87;;
16667;SDS011;8447;52.630;4.734;2023-04-15T03:18:49;5.00;;;2.77;;
16667;SDS011;8447;52.630;4.734;2023-04-15T03:21:15;7.40;;;3.00;;
16667;SDS011;8447;52.630;4.734;2023-04-15T03:23:42;6.00;;;2.67;;
16667;SDS011;8447;52.630;4.734;2023-04-15T03:26:09;3.83;;;3.30;;
16667;SDS011;8447;52.630;4.734;2023-04-15T03:28:48;5.63;;;2.93;;
16667;SDS011;8447;52.630;4.734;2023-04-15T03:31:15;4.83;;;2.73;;
16667;SDS011;8447;52.630;4.734;2023-04-15T03:33:41;4.53;;;2.83;;
16667;SDS011;8447;52.630;4.734;2023-04-15T03:36:07;3.50;;;2.83;;
16667;SDS011;8447;52.630;4.734;2023-04-15T03:38:34;6.03;;;3.27;;
16667;SDS011;8447;52.630;4.734;2023-04-15T03:41:00;5.63;;;3.00;;
16667;SDS011;8447;52.630;4.734;2023-04-15T03:43:28;3.70;;;2.57;;
16667;SDS011;8447;52.630;4.734;2023-04-15T03:45:54;5.47;;;3.13;;
16667;SDS011;8447;52.630;4.734;2023-04-15T03:48:20;4.20;;;2.83;;
16667;SDS011;8447;52.630;4.734;2023-04-15T03:50:47;4.70;;;3.43;;
16667;SDS011;8447;52.630;4.734;2023-04-15T03:53:13;4.17;;;3.33;;
16667;SDS011;8447;52.630;4.734;2023-04-15T03:55:40;6.47;;;2.90;;
16667;SDS011;8447;52.630;4.734;2023-04-15T03:58:06;6.97;;;2.93;;
16667;SDS011;8447;52.630;4.734;2023-04-15T04:00:38;4.23;;;3.13;;
16667;SDS011;8447;52.630;4.734;2023-04-15T04:03:05;5.03;;;3.23;;
16667;SDS011;8447;52.630;4.734;2023-04-15T04:05:32;5.80;;;2.93;;
16667;SDS011;8447;52.630;4.734;2023-04-15T04:08:01;5.93;;;2.63;;
16667;SDS011;8447;52.630;4.734;2023-04-15T04:10:27;4.93;;;3.10;;
16667;SDS011;8447;52.630;4.734;2023-04-15T04:12:53;9.23;;;2.80;;
16667;SDS011;8447;52.630;4.734;2023-04-15T04:15:20;5.37;;;2.90;;
16667;SDS011;8447;52.630;4.734;2023-04-15T04:17:47;3.93;;;2.60;;
16667;SDS011;8447;52.630;4.734;2023-04-15T04:20:14;4.80;;;2.87;;
16667;SDS011;8447;52.630;4.734;2023-04-15T04:22:40;4.90;;;3.00;;
16667;SDS011;8447;52.630;4.734;2023-04-15T04:25:07;5.13;;;3.27;;
16667;SDS011;8447;52.630;4.734;2023-04-15T04:27:34;3.80;;;3.27;;
16667;SDS011;8447;52.630;4.734;2023-04-15T04:30:00;4.10;;;3.13;;
16667;SDS011;8447;52.630;4.734;2023-04-15T04:32:26;3.93;;;2.83;;
16667;SDS011;8447;52.630;4.734;2023-04-15T04:34:54;4.87;;;3.30;;
16667;SDS011;8447;52.630;4.734;2023-04-15T04:37:21;6.67;;;3.47;;
16667;SDS011;8447;52.630;4.734;2023-04-15T04:39:48;5.63;;;3.40;;
16667;SDS011;8447;52.630;4.734;2023-04-15T04:42:15;5.83;;;3.37;;
16667;SDS011;8447;52.630;4.734;2023-04-15T04:44:41;5.57;;;3.27;;
16667;SDS011;8447;52.630;4.734;2023-04-15T04:47:07;3.77;;;2.73;;
16667;SDS011;8447;52.630;4.734;2023-04-15T04:49:34;8.23;;;3.40;;
16667;SDS011;8447;52.630;4.734;2023-04-15T04:52:02;5.07;;;3.03;;
16667;SDS011;8447;52.630;4.734;2023-04-15T04:54:28;4.13;;;2.70;;
16667;SDS011;8447;52.630;4.734;2023-04-15T04:56:55;5.90;;;3.87;;
16667;SDS011;8447;52.630;4.734;2023-04-15T04:59:22;5.20;;;3.60;;
16667;SDS011;8447;52.630;4.734;2023-04-15T05:01:48;6.50;;;3.57;;
16667;SDS011;8447;52.630;4.734;2023-04-15T05:04:15;4.37;;;3.37;;
16667;SDS011;8447;52.630;4.734;2023-04-15T05:06:41;5.80;;;3.73;;
16667;SDS011;8447;52.630;4.734;2023-04-15T05:09:09;3.30;;;3.00;;
16667;SDS011;8447;52.630;4.734;2023-04-15T05:11:35;6.40;;;3.93;;
16667;SDS011;8447;52.630;4.734;2023-04-15T05:14:02;4.83;;;3.73;;
16667;SDS011;8447;52.630;4.734;2023-04-15T05:16:28;5.07;;;3.73;;
16667;SDS011;8447;52.630;4.734;2023-04-15T05:18:54;4.60;;;3.20;;
16667;SDS011;8447;52.630;4.734;2023-04-15T05:21:21;6.33;;;4.30;;
16667;SDS011;8447;52.630;4.734;2023-04-15T05:23:47;4.10;;;3.70;;
16667;SDS011;8447;52.630;4.734;2023-04-15T05:26:15;7.13;;;4.43;;
16667;SDS011;8447;52.630;4.734;2023-04-15T05:28:41;7.27;;;3.80;;
16667;SDS011;8447;52.630;4.734;2023-04-15T05:31:08;7.10;;;4.00;;
16667;SDS011;8447;52.630;4.734;2023-04-15T05:33:34;4.53;;;3.90;;
16667;SDS011;8447;52.630;4.734;2023-04-15T05:36:01;7.10;;;3.70;;
16667;SDS011;8447;52.630;4.734;2023-04-15T05:38:28;6.23;;;3.50;;
16667;SDS011;8447;52.630;4.734;2023-04-15T05:40:54;4.80;;;3.77;;
16667;SDS011;8447;52.630;4.734;2023-04-15T05:43:22;5.27;;;3.63;;
16667;SDS011;8447;52.630;4.734;2023-04-15T05:45:48;6.90;;;3.97;;
16667;SDS011;8447;52.630;4.734;2023-04-15T05:48:15;5.17;;;3.47;;
16667;SDS011;8447;52.630;4.734;2023-04-15T05:50:41;7.73;;;4.20;;
16667;SDS011;8447;52.630;4.734;2023-04-15T05:53:07;5.37;;;4.10;;
16667;SDS011;8447;52.630;4.734;2023-04-15T05:55:34;6.03;;;3.23;;
16667;SDS011;8447;52.630;4.734;2023-04-15T05:58:00;5.20;;;4.10;;
16667;SDS011;8447;52.630;4.734;2023-04-15T06:00:29;5.03;;;3.53;;
16667;SDS011;8447;52.630;4.734;2023-04-15T06:02:55;7.27;;;4.20;;
16667;SDS011;8447;52.630;4.734;2023-04-15T06:05:22;3.27;;;2.93;;
16667;SDS011;8447;52.630;4.734;2023-04-15T06:07:48;8.80;;;4.87;;
16667;SDS011;8447;52.630;4.734;2023-04-15T06:10:15;8.33;;;5.03;;
16667;SDS011;8447;52.630;4.734;2023-04-15T06:12:41;6.70;;;4.10;;
16667;SDS011;8447;52.630;4.734;2023-04-15T06:15:08;7.60;;;4.50;;
16667;SDS011;8447;52.630;4.734;2023-04-15T06:17:36;5.47;;;4.00;;
16667;SDS011;8447;52.630;4.734;2023-04-15T06:20:03;9.17;;;4.53;;
16667;SDS011;8447;52.630;4.734;2023-04-15T06:22:29;6.97;;;4.97;;
16667;SDS011;8447;52.630;4.734;2023-04-15T06:24:56;6.10;;;4.20;;
16667;SDS011;8447;52.630;4.734;2023-04-15T06:27:22;5.13;;;3.60;;
16667;SDS011;8447;52.630;4.734;2023-04-15T06:29:48;6.40;;;4.20;;
16667;SDS011;8447;52.630;4.734;2023-04-15T06:32:15;3.83;;;3.37;;
16667;SDS011;8447;52.630;4.734;2023-04-15T06:34:43;4.83;;;3.07;;
16667;SDS011;8447;52.630;4.734;2023-04-15T06:37:09;7.30;;;5.33;;
16667;SDS011;8447;52.630;4.734;2023-04-15T06:39:40;7.10;;;4.97;;
16667;SDS011;8447;52.630;4.734;2023-04-15T06:42:06;6.23;;;4.23;;
16667;SDS011;8447;52.630;4.734;2023-04-15T06:44:33;7.30;;;4.97;;
16667;SDS011;8447;52.630;4.734;2023-04-15T06:46:59;7.57;;;4.97;;
16667;SDS011;8447;52.630;4.734;2023-04-15T06:49:26;6.00;;;4.60;;
16667;SDS011;8447;52.630;4.734;2023-04-15T06:51:54;6.27;;;4.13;;
16667;SDS011;8447;52.630;4.734;2023-04-15T06:54:20;8.17;;;5.37;;
16667;SDS011;8447;52.630;4.734;2023-04-15T06:56:46;6.80;;;4.80;;
16667;SDS011;8447;52.630;4.734;2023-04-15T06:59:13;7.07;;;5.57;;
16667;SDS011;8447;52.630;4.734;2023-04-15T07:01:39;7.27;;;5.00;;
16667;SDS011;8447;52.630;4.734;2023-04-15T07:04:06;4.93;;;4.17;;
16667;SDS011;8447;52.630;4.734;2023-04-15T07:06:32;5.37;;;4.67;;
16667;SDS011;8447;52.630;4.734;2023-04-15T07:09:01;5.43;;;3.43;;
16667;SDS011;8447;52.630;4.734;2023-04-15T07:11:29;6.43;;;4.63;;
16667;SDS011;8447;52.630;4.734;2023-04-15T07:13:56;6.20;;;4.53;;
16667;SDS011;8447;52.630;4.734;2023-04-15T07:16:23;5.40;;;3.67;;
16667;SDS011;8447;52.630;4.734;2023-04-15T07:18:49;5.43;;;3.80;;
16667;SDS011;8447;52.630;4.734;2023-04-15T07:21:16;4.63;;;3.57;;
16667;SDS011;8447;52.630;4.734;2023-04-15T07:23:42;4.77;;;4.00;;
16667;SDS011;8447;52.630;4.734;2023-04-15T07:26:10;3.97;;;3.50;;
16667;SDS011;8447;52.630;4.734;2023-04-15T07:28:37;4.80;;;3.53;;
16667;SDS011;8447;52.630;4.734;2023-04-15T07:31:03;4.63;;;3.60;;
16667;SDS011;8447;52.630;4.734;2023-04-15T07:33:29;4.03;;;3.20;;
16667;SDS011;8447;52.630;4.734;2023-04-15T07:35:56;3.53;;;3.20;;
16667;SDS011;8447;52.630;4.734;2023-04-15T07:38:22;4.70;;;3.50;;
16667;SDS011;8447;52.630;4.734;2023-04-15T07:40:48;3.40;;;3.10;;
16667;SDS011;8447;52.630;4.734;2023-04-15T07:43:16;3.80;;;3.00;;
16667;SDS011;8447;52.630;4.734;2023-04-15T07:45:44;3.27;;;2.77;;
16667;SDS011;8447;52.630;4.734;2023-04-15T07:48:11;3.00;;;2.67;;
16667;SDS011;8447;52.630;4.734;2023-04-15T07:50:37;3.23;;;2.47;;
16667;SDS011;8447;52.630;4.734;2023-04-15T07:53:04;2.90;;;2.60;;
16667;SDS011;8447;52.630;4.734;2023-04-15T07:55:31;3.23;;;2.83;;
16667;SDS011;8447;52.630;4.734;2023-04-15T07:57:57;3.07;;;2.50;;
16667;SDS011;8447;52.630;4.734;2023-04-15T08:00:25;3.13;;;1.83;;
16667;SDS011;8447;52.630;4.734;2023-04-15T08:02:52;3.47;;;2.80;;
16667;SDS011;8447;52.630;4.734;2023-04-15T08:05:18;3.23;;;2.10;;
16667;SDS011;8447;52.630;4.734;2023-04-15T08:07:45;3.33;;;2.70;;
16667;SDS011;8447;52.630;4.734;2023-04-15T08:10:11;3.30;;;3.00;;
16667;SDS011;8447;52.630;4.734;2023-04-15T08:12:37;3.30;;;2.63;;
16667;SDS011;8447;52.630;4.734;2023-04-15T08:15:04;2.87;;;2.60;;
16667;SDS011;8447;52.630;4.734;2023-04-15T08:17:33;2.77;;;2.33;;
16667;SDS011;8447;52.630;4.734;2023-04-15T08:20:00;2.77;;;2.10;;
16667;SDS011;8447;52.630;4.734;2023-04-15T08:22:26;2.93;;;2.63;;
16667;SDS011;8447;52.630;4.734;2023-04-15T08:24:52;5.27;;;2.23;;
16667;SDS011;8447;52.630;4.734;2023-04-15T08:27:19;2.43;;;2.23;;
16667;SDS011;8447;52.630;4.734;2023-04-15T08:29:45;3.97;;;2.90;;
16667;SDS011;8447;52.630;4.734;2023-04-15T08:32:12;3.57;;;2.77;;
16667;SDS011;8447;52.630;4.734;2023-04-15T08:34:40;4.83;;;2.27;;
16667;SDS011;8447;52.630;4.734;2023-04-15T08:37:06;3.03;;;1.67;;
16667;SDS011;8447;52.630;4.734;2023-04-15T08:39:33;3.20;;;2.43;;
16667;SDS011;8447;52.630;4.734;2023-04-15T08:42:00;2.90;;;2.37;;
16667;SDS011;8447;52.630;4.734;2023-04-15T08:44:28;3.30;;;2.17;;
16667;SDS011;8447;52.630;4.734;2023-04-15T08:46:55;2.67;;;2.00;;
16667;SDS011;8447;52.630;4.734;2023-04-15T08:49:21;4.40;;;2.23;;
16667;SDS011;8447;52.630;4.734;2023-04-15T08:51:51;2.83;;;2.03;;
16667;SDS011;8447;52.630;4.734;2023-04-15T08:54:17;2.93;;;2.33;;
16667;SDS011;8447;52.630;4.734;2023-04-15T08:56:44;3.30;;;1.80;;
16667;SDS011;8447;52.630;4.734;2023-04-15T08:59:11;3.43;;;1.57;;
16667;SDS011;8447;52.630;4.734;2023-04-15T09:01:38;2.10;;;1.77;;
16667;SDS011;8447;52.630;4.734;2023-04-15T09:04:05;1.53;;;1.27;;
16667;SDS011;8447;52.630;4.734;2023-04-15T09:06:32;2.17;;;1.77;;
16667;SDS011;8447;52.630;4.734;2023-04-15T09:09:00;3.60;;;1.90;;
16667;SDS011;8447;52.630;4.734;2023-04-15T09:11:26;1.93;;;1.50;;
16667;SDS011;8447;52.630;4.734;2023-04-15T09:13:52;3.70;;;1.77;;
16667;SDS011;8447;52.630;4.734;2023-04-15T09:16:19;3.07;;;1.87;;
16667;SDS011;8447;52.630;4.734;2023-04-15T09:18:45;2.47;;;1.10;;
16667;SDS011;8447;52.630;4.734;2023-04-15T09:21:12;4.37;;;1.83;;
16667;SDS011;8447;52.630;4.734;2023-04-15T09:23:39;2.17;;;1.70;;
16667;SDS011;8447;52.630;4.734;2023-04-15T09:26:07;2.53;;;1.70;;
16667;SDS011;8447;52.630;4.734;2023-04-15T09:28:40;3.47;;;2.10;;
16667;SDS011;8447;52.630;4.734;2023-04-15T09:31:06;3.63;;;2.37;;
16667;SDS011;8447;52.630;4.734;2023-04-15T09:33:34;6.00;;;2.43;;
16667;SDS011;8447;52.630;4.734;2023-04-15T09:36:01;2.27;;;1.80;;
16667;SDS011;8447;52.630;4.734;2023-04-15T09:38:28;3.33;;;1.80;;
16667;SDS011;8447;52.630;4.734;2023-04-15T09:40:55;2.50;;;1.80;;
16667;SDS011;8447;52.630;4.734;2023-04-15T09:43:25;3.33;;;2.00;;
16667;SDS011;8447;52.630;4.734;2023-04-15T09:46:02;4.57;;;2.27;;
16667;SDS011;8447;52.630;4.734;2023-04-15T09:48:28;3.30;;;1.93;;
16667;SDS011;8447;52.630;4.734;2023-04-15T09:50:56;4.70;;;1.93;;
16667;SDS011;8447;52.630;4.734;2023-04-15T09:53:23;2.00;;;1.80;;
16667;SDS011;8447;52.630;4.734;2023-04-15T09:55:50;1.87;;;1.37;;
16667;SDS011;8447;52.630;4.734;2023-04-15T09:58:18;2.27;;;1.97;;
16667;SDS011;8447;52.630;4.734;2023-04-15T10:00:47;2.20;;;1.97;;
16667;SDS011;8447;52.630;4.734;2023-04-15T10:03:15;2.87;;;2.23;;
16667;SDS011;8447;52.630;4.734;2023-04-15T10:05:44;5.67;;;2.20;;
16667;SDS011;8447;52.630;4.734;2023-04-15T10:08:11;2.03;;;1.57;;
16667;SDS011;8447;52.630;4.734;2023-04-15T10:10:38;2.27;;;1.87;;
16667;SDS011;8447;52.630;4.734;2023-04-15T10:13:04;6.63;;;1.50;;
16667;SDS011;8447;52.630;4.734;2023-04-15T10:15:31;5.10;;;2.80;;
16667;SDS011;8447;52.630;4.734;2023-04-15T10:17:59;5.13;;;2.03;;
16667;SDS011;8447;52.630;4.734;2023-04-15T10:20:26;3.80;;;2.30;;
16667;SDS011;8447;52.630;4.734;2023-04-15T10:22:54;2.93;;;1.93;;
16667;SDS011;8447;52.630;4.734;2023-04-15T10:25:20;2.83;;;1.80;;
16667;SDS011;8447;52.630;4.734;2023-04-15T10:27:47;2.07;;;1.77;;
16667;SDS011;8447;52.630;4.734;2023-04-15T10:30:16;3.17;;;2.03;;
16667;SDS011;8447;52.630;4.734;2023-04-15T10:32:43;3.67;;;1.90;;
16667;SDS011;8447;52.630;4.734;2023-04-15T10:35:11;2.70;;;1.40;;
16667;SDS011;8447;52.630;4.734;2023-04-15T10:37:38;3.30;;;1.60;;
16667;SDS011;8447;52.630;4.734;2023-04-15T10:40:24;4.20;;;1.83;;
16667;SDS011;8447;52.630;4.734;2023-04-15T10:42:51;0.73;;;0.73;;
16667;SDS011;8447;52.630;4.734;2023-04-15T10:45:18;2.83;;;1.40;;
16667;SDS011;8447;52.630;4.734;2023-04-15T10:47:44;2.87;;;1.53;;
16667;SDS011;8447;52.630;4.734;2023-04-15T10:50:12;1.73;;;1.07;;
16667;SDS011;8447;52.630;4.734;2023-04-15T10:52:38;2.20;;;0.93;;
16667;SDS011;8447;52.630;4.734;2023-04-15T10:55:11;2.87;;;1.10;;
16667;SDS011;8447;52.630;4.734;2023-04-15T10:57:38;1.93;;;1.00;;
16667;SDS011;8447;52.630;4.734;2023-04-15T11:00:09;10.17;;;1.13;;
16667;SDS011;8447;52.630;4.734;2023-04-15T11:02:40;1.97;;;1.07;;
16667;SDS011;8447;52.630;4.734;2023-04-15T11:05:06;4.32;;;1.30;;
16667;SDS011;8447;52.630;4.734;2023-04-15T11:07:38;3.67;;;1.20;;
16667;SDS011;8447;52.630;4.734;2023-04-15T11:12:53;3.77;;;1.30;;
16667;SDS011;8447;52.630;4.734;2023-04-15T11:15:26;7.50;;;1.10;;
16667;SDS011;8447;52.630;4.734;2023-04-15T11:17:53;2.20;;;0.93;;
16667;SDS011;8447;52.630;4.734;2023-04-15T11:20:20;1.33;;;0.93;;
16667;SDS011;8447;52.630;4.734;2023-04-15T11:22:48;3.03;;;1.73;;
16667;SDS011;8447;52.630;4.734;2023-04-15T11:25:21;3.27;;;0.90;;
16667;SDS011;8447;52.630;4.734;2023-04-15T11:27:47;2.47;;;1.07;;
16667;SDS011;8447;52.630;4.734;2023-04-15T11:30:17;3.03;;;1.43;;
16667;SDS011;8447;52.630;4.734;2023-04-15T11:32:45;1.83;;;1.10;;
16667;SDS011;8447;52.630;4.734;2023-04-15T11:35:11;2.13;;;1.00;;
16667;SDS011;8447;52.630;4.734;2023-04-15T11:37:37;2.20;;;1.50;;
16667;SDS011;8447;52.630;4.734;2023-04-15T11:40:06;3.20;;;1.10;;
16667;SDS011;8447;52.630;4.734;2023-04-15T11:42:33;1.57;;;0.93;;
16667;SDS011;8447;52.630;4.734;2023-04-15T11:45:05;2.00;;;1.50;;
16667;SDS011;8447;52.630;4.734;2023-04-15T11:47:31;2.67;;;1.17;;
16667;SDS011;8447;52.630;4.734;2023-04-15T11:50:12;1.90;;;1.17;;
16667;SDS011;8447;52.630;4.734;2023-04-15T11:52:38;3.03;;;0.80;;
16667;SDS011;8447;52.630;4.734;2023-04-15T11:55:07;2.87;;;1.57;;
16667;SDS011;8447;52.630;4.734;2023-04-15T11:57:34;4.33;;;1.63;;
16667;SDS011;8447;52.630;4.734;2023-04-15T12:00:00;4.73;;;1.13;;
16667;SDS011;8447;52.630;4.734;2023-04-15T12:02:29;5.63;;;1.20;;
16667;SDS011;8447;52.630;4.734;2023-04-15T12:05:01;2.30;;;1.37;;
16667;SDS011;8447;52.630;4.734;2023-04-15T12:07:28;1.87;;;1.00;;
16667;SDS011;8447;52.630;4.734;2023-04-15T12:09:54;1.73;;;1.03;;
16667;SDS011;8447;52.630;4.734;2023-04-15T12:12:26;2.17;;;0.90;;
16667;SDS011;8447;52.630;4.734;2023-04-15T12:14:53;2.67;;;1.13;;
16667;SDS011;8447;52.630;4.734;2023-04-15T12:17:22;3.53;;;1.73;;
16667;SDS011;8447;52.630;4.734;2023-04-15T12:19:54;6.43;;;2.77;;
16667;SDS011;8447;52.630;4.734;2023-04-15T12:22:20;6.93;;;2.50;;
16667;SDS011;8447;52.630;4.734;2023-04-15T12:24:47;9.13;;;2.20;;
16667;SDS011;8447;52.630;4.734;2023-04-15T12:27:24;6.13;;;2.20;;
16667;SDS011;8447;52.630;4.734;2023-04-15T12:29:56;3.77;;;1.90;;
16667;SDS011;8447;52.630;4.734;2023-04-15T12:32:28;4.70;;;1.70;;
16667;SDS011;8447;52.630;4.734;2023-04-15T12:34:54;5.40;;;1.60;;
16667;SDS011;8447;52.630;4.734;2023-04-15T12:37:21;3.90;;;1.57;;
16667;SDS011;8447;52.630;4.734;2023-04-15T12:39:47;2.93;;;1.20;;
16667;SDS011;8447;52.630;4.734;2023-04-15T12:42:14;2.23;;;1.20;;
16667;SDS011;8447;52.630;4.734;2023-04-15T12:44:41;3.40;;;1.30;;
16667;SDS011;8447;52.630;4.734;2023-04-15T12:47:09;5.43;;;1.40;;
16667;SDS011;8447;52.630;4.734;2023-04-15T12:49:36;2.10;;;0.90;;
16667;SDS011;8447;52.630;4.734;2023-04-15T12:52:03;1.63;;;1.20;;
16667;SDS011;8447;52.630;4.734;2023-04-15T12:54:31;3.33;;;1.27;;
16667;SDS011;8447;52.630;4.734;2023-04-15T12:56:57;1.47;;;0.77;;
16667;SDS011;8447;52.630;4.734;2023-04-15T12:59:24;2.30;;;1.30;;
16667;SDS011;8447;52.630;4.734;2023-04-15T13:01:51;1.57;;;0.80;;
16667;SDS011;8447;52.630;4.734;2023-04-15T13:04:19;3.23;;;1.00;;
16667;SDS011;8447;52.630;4.734;2023-04-15T13:06:46;2.33;;;0.90;;
16667;SDS011;8447;52.630;4.734;2023-04-15T13:09:12;2.43;;;0.97;;
16667;SDS011;8447;52.630;4.734;2023-04-15T13:11:39;3.33;;;1.10;;
16667;SDS011;8447;52.630;4.734;2023-04-15T13:14:06;1.40;;;0.90;;
16667;SDS011;8447;52.630;4.734;2023-04-15T13:16:33;5.00;;;1.20;;
16667;SDS011;8447;52.630;4.734;2023-04-15T13:18:59;5.00;;;1.10;;
16667;SDS011;8447;52.630;4.734;2023-04-15T13:21:27;3.50;;;1.00;;
16667;SDS011;8447;52.630;4.734;2023-04-15T13:23:55;1.17;;;0.80;;
16667;SDS011;8447;52.630;4.734;2023-04-15T13:26:21;1.80;;;0.80;;
16667;SDS011;8447;52.630;4.734;2023-04-15T13:28:48;2.97;;;1.10;;
16667;SDS011;8447;52.630;4.734;2023-04-15T13:31:14;2.60;;;0.67;;
16667;SDS011;8447;52.630;4.734;2023-04-15T13:33:40;1.57;;;0.70;;
16667;SDS011;8447;52.630;4.734;2023-04-15T13:36:07;2.80;;;0.90;;
16667;SDS011;8447;52.630;4.734;2023-04-15T13:38:35;3.83;;;1.00;;
16667;SDS011;8447;52.630;4.734;2023-04-15T13:41:01;1.77;;;0.80;;
16667;SDS011;8447;52.630;4.734;2023-04-15T13:43:27;2.10;;;0.90;;
16667;SDS011;8447;52.630;4.734;2023-04-15T13:45:54;5.23;;;1.00;;
16667;SDS011;8447;52.630;4.734;2023-04-15T13:48:20;1.87;;;0.77;;
16667;SDS011;8447;52.630;4.734;2023-04-15T13:50:47;3.73;;;1.20;;
16667;SDS011;8447;52.630;4.734;2023-04-15T13:53:13;3.80;;;1.00;;
16667;SDS011;8447;52.630;4.734;2023-04-15T13:55:41;1.23;;;0.80;;
16667;SDS011;8447;52.630;4.734;2023-04-15T13:58:07;1.77;;;1.10;;
16667;SDS011;8447;52.630;4.734;2023-04-15T14:00:34;3.50;;;1.00;;
16667;SDS011;8447;52.630;4.734;2023-04-15T14:03:00;4.67;;;1.20;;
16667;SDS011;8447;52.630;4.734;2023-04-15T14:05:27;8.10;;;1.67;;
16667;SDS011;8447;52.630;4.734;2023-04-15T14:07:53;2.77;;;1.17;;
16667;SDS011;8447;52.630;4.734;2023-04-15T14:10:19;2.23;;;1.33;;
16667;SDS011;8447;52.630;4.734;2023-04-15T14:12:47;2.83;;;1.60;;
16667;SDS011;8447;52.630;4.734;2023-04-15T14:15:14;2.93;;;1.43;;
16667;SDS011;8447;52.630;4.734;2023-04-15T14:17:40;2.77;;;1.07;;
16667;SDS011;8447;52.630;4.734;2023-04-15T14:20:07;1.23;;;0.87;;
16667;SDS011;8447;52.630;4.734;2023-04-15T14:22:34;1.37;;;1.00;;
16667;SDS011;8447;52.630;4.734;2023-04-15T14:25:00;3.33;;;1.57;;
16667;SDS011;8447;52.630;4.734;2023-04-15T14:27:27;2.70;;;1.00;;
16667;SDS011;8447;52.630;4.734;2023-04-15T14:29:55;4.17;;;1.00;;
16667;SDS011;8447;52.630;4.734;2023-04-15T14:32:21;2.17;;;1.07;;
16667;SDS011;8447;52.630;4.734;2023-04-15T14:34:48;2.53;;;0.93;;
16667;SDS011;8447;52.630;4.734;2023-04-15T14:37:14;3.47;;;0.93;;
16667;SDS011;8447;52.630;4.734;2023-04-15T14:39:41;3.97;;;1.20;;
16667;SDS011;8447;52.630;4.734;2023-04-15T14:42:07;5.80;;;1.17;;
16667;SDS011;8447;52.630;4.734;2023-04-15T14:44:34;2.93;;;1.00;;
16667;SDS011;8447;52.630;4.734;2023-04-15T14:47:01;2.63;;;1.00;;
16667;SDS011;8447;52.630;4.734;2023-04-15T14:49:28;2.90;;;0.83;;
16667;SDS011;8447;52.630;4.734;2023-04-15T14:51:54;3.57;;;1.27;;
16667;SDS011;8447;52.630;4.734;2023-04-15T14:54:20;2.87;;;1.20;;
16667;SDS011;8447;52.630;4.734;2023-04-15T14:56:47;0.93;;;0.70;;
16667;SDS011;8447;52.630;4.734;2023-04-15T14:59:13;3.17;;;0.80;;
16667;SDS011;8447;52.630;4.734;2023-04-15T15:01:39;5.27;;;1.10;;